createdAt,value
2018-01-30T00:00:49.254Z,0.00
2018-01-30T00:01:49.311Z,0.00
2018-01-30T00:03:42.310Z,0.00
2018-01-30T00:04:42.347Z,0.00
2018-01-30T00:06:35.331Z,0.00
2018-01-30T00:07:35.387Z,0.00
2018-01-30T00:09:28.388Z,0.00
2018-01-30T00:10:28.425Z,0.00
2018-01-30T00:12:21.406Z,0.00
2018-01-30T00:13:21.461Z,0.00
2018-01-30T00:15:14.459Z,0.00
2018-01-30T00:16:14.496Z,0.00
2018-01-30T00:18:07.504Z,0.00
2018-01-30T00:19:07.534Z,0.00
2018-01-30T00:21:00.518Z,0.00
2018-01-30T00:22:00.569Z,0.00
2018-01-30T00:23:53.569Z,0.00
2018-01-30T00:24:53.612Z,0.00
2018-01-30T00:26:46.583Z,0.00
2018-01-30T00:27:46.642Z,0.00
2018-01-30T00:29:39.645Z,0.00
2018-01-30T00:30:39.676Z,0.00
2018-01-30T00:32:32.660Z,0.00
2018-01-30T00:33:32.719Z,0.00
2018-01-30T00:35:25.717Z,0.00
2018-01-30T00:36:25.752Z,0.00
2018-01-30T00:38:18.752Z,0.00
2018-01-30T00:39:18.787Z,0.00
2018-01-30T00:41:11.794Z,0.00
2018-01-30T00:42:11.826Z,0.00
2018-01-30T00:44:04.824Z,0.00
2018-01-30T00:45:04.860Z,0.00
2018-01-30T00:46:57.839Z,0.00
2018-01-30T00:47:57.897Z,0.00
2018-01-30T00:49:50.897Z,0.00
2018-01-30T00:50:50.934Z,0.00
2018-01-30T00:52:43.915Z,0.00
2018-01-30T00:53:43.967Z,0.00
2018-01-30T00:55:36.966Z,0.00
2018-01-30T00:56:37.001Z,0.00
2018-01-30T00:58:30.003Z,0.00
2018-01-30T00:59:30.038Z,0.00
2018-01-30T01:01:23.014Z,0.00
2018-01-30T01:02:23.072Z,0.00
2018-01-30T01:04:16.071Z,0.00
2018-01-30T01:05:16.106Z,0.00
2018-01-30T01:07:09.086Z,0.00
2018-01-30T01:08:09.144Z,0.00
2018-01-30T01:10:02.141Z,0.00
2018-01-30T01:11:02.177Z,0.00
2018-01-30T01:12:55.152Z,0.00
2018-01-30T01:13:55.214Z,0.00
2018-01-30T01:15:48.213Z,0.00
2018-01-30T01:16:48.245Z,0.00
2018-01-30T01:18:41.250Z,0.00
2018-01-30T01:19:41.281Z,0.00
2018-01-30T01:21:34.258Z,0.00
2018-01-30T01:22:34.315Z,0.00
2018-01-30T01:24:27.318Z,0.00
2018-01-30T01:25:27.358Z,0.00
2018-01-30T01:27:20.337Z,0.00
2018-01-30T01:28:20.394Z,0.00
2018-01-30T01:30:13.391Z,0.00
2018-01-30T01:31:13.426Z,0.00
2018-01-30T01:33:06.409Z,0.00
2018-01-30T01:34:06.461Z,0.00
2018-01-30T01:35:59.464Z,0.00
2018-01-30T01:36:59.495Z,0.00
2018-01-30T01:38:52.500Z,0.00
2018-01-30T01:39:52.531Z,0.00
2018-01-30T01:41:45.532Z,0.00
2018-01-30T01:42:45.566Z,0.00
2018-01-30T01:44:38.564Z,0.00
2018-01-30T01:45:38.599Z,0.00
2018-01-30T01:47:31.576Z,0.00
2018-01-30T01:48:31.634Z,0.00
2018-01-30T01:50:24.634Z,0.00
2018-01-30T01:51:24.670Z,0.00
2018-01-30T01:53:17.652Z,0.00
2018-01-30T01:54:17.720Z,0.00
2018-01-30T01:56:10.701Z,0.00
2018-01-30T01:57:10.737Z,0.00
2018-01-30T01:59:03.741Z,0.00
2018-01-30T02:00:03.770Z,0.00
2018-01-30T02:01:57.258Z,0.00
2018-01-30T02:02:57.311Z,0.00
2018-01-30T02:04:50.308Z,0.00
2018-01-30T02:05:50.346Z,0.00
2018-01-30T02:07:43.326Z,0.00
2018-01-30T02:08:43.379Z,0.00
2018-01-30T02:10:36.376Z,0.00
2018-01-30T02:11:36.411Z,0.00
2018-01-30T02:13:29.396Z,0.00
2018-01-30T02:14:29.444Z,0.00
2018-01-30T02:16:22.441Z,0.00
2018-01-30T02:17:22.477Z,0.00
2018-01-30T02:19:15.474Z,0.00
2018-01-30T02:20:15.512Z,0.00
2018-01-30T02:25:14.728Z,0.00
2018-01-30T02:26:14.765Z,0.00
2018-01-30T02:28:07.745Z,0.00
2018-01-30T02:29:07.801Z,0.00
2018-01-30T02:31:00.803Z,0.00
2018-01-30T02:32:00.837Z,0.00
2018-01-30T02:33:53.814Z,0.00
2018-01-30T02:34:53.869Z,0.00
2018-01-30T02:36:46.872Z,0.00
2018-01-30T02:37:46.904Z,0.00
2018-01-30T02:39:39.887Z,0.00
2018-01-30T02:40:39.991Z,0.00
2018-01-30T02:42:32.940Z,0.00
2018-01-30T02:43:32.973Z,0.00
2018-01-30T02:45:25.976Z,0.00
2018-01-30T02:46:26.005Z,0.00
2018-01-30T02:48:18.982Z,0.00
2018-01-30T02:49:19.037Z,0.00
2018-01-30T02:51:12.040Z,0.00
2018-01-30T03:19:24.642Z,0.00
2018-01-30T03:20:24.679Z,0.00
2018-01-30T03:22:17.682Z,0.00
2018-01-30T03:23:17.718Z,0.00
2018-01-30T03:25:10.717Z,0.00
2018-01-30T03:26:10.754Z,0.00
2018-01-30T03:28:03.741Z,0.00
2018-01-30T03:29:03.791Z,0.00
2018-01-30T03:30:56.791Z,0.00
2018-01-30T03:31:56.861Z,0.00
2018-01-30T03:33:49.800Z,0.00
2018-01-30T03:34:49.855Z,0.00
2018-01-30T03:36:42.854Z,0.00
2018-01-30T03:37:42.892Z,0.00
2018-01-30T03:39:35.868Z,0.00
2018-01-30T03:40:35.922Z,0.00
2018-01-30T03:42:28.917Z,0.00
2018-01-30T03:43:28.953Z,0.00
2018-01-30T03:45:21.947Z,0.00
2018-01-30T03:46:21.984Z,0.00
2018-01-30T03:48:14.970Z,0.00
2018-01-30T03:49:15.025Z,0.00
2018-01-30T03:51:08.022Z,0.00
2018-01-30T03:52:08.056Z,0.00
2018-01-30T03:54:01.030Z,0.00
2018-01-30T03:55:01.088Z,0.00
2018-01-30T03:56:54.083Z,0.00
2018-01-30T03:57:54.118Z,0.00
2018-01-30T03:59:47.098Z,0.00
2018-01-30T04:00:47.152Z,0.00
2018-01-30T04:02:41.664Z,0.00
2018-01-30T04:03:41.690Z,0.00
2018-01-30T04:05:34.744Z,0.00
2018-01-30T04:06:34.727Z,0.00
2018-01-30T04:08:27.707Z,0.00
2018-01-30T04:09:27.758Z,0.00
2018-01-30T04:11:20.765Z,0.00
2018-01-30T04:12:20.797Z,0.00
2018-01-30T04:14:13.774Z,0.00
2018-01-30T04:15:13.828Z,0.00
2018-01-30T04:17:06.824Z,0.00
2018-01-30T04:18:06.860Z,0.00
2018-01-30T04:19:59.834Z,0.00
2018-01-30T04:20:59.890Z,0.00
2018-01-30T04:22:52.888Z,0.00
2018-01-30T04:23:53.021Z,0.00
2018-01-30T04:25:45.925Z,0.00
2018-01-30T04:26:45.956Z,0.00
2018-01-30T04:28:38.935Z,0.00
2018-01-30T04:29:38.986Z,0.00
2018-01-30T04:31:31.986Z,0.00
2018-01-30T04:32:32.022Z,0.00
2018-01-30T04:34:25.043Z,0.00
2018-01-30T04:35:25.064Z,0.00
2018-01-30T04:37:18.066Z,0.00
2018-01-30T04:38:18.102Z,0.00
2018-01-30T04:40:11.077Z,0.00
2018-01-30T04:41:11.136Z,0.00
2018-01-30T04:43:04.135Z,0.00
2018-01-30T04:44:04.186Z,0.00
2018-01-30T04:45:57.163Z,0.00
2018-01-30T04:46:57.201Z,0.00
2018-01-30T04:48:50.176Z,0.00
2018-01-30T04:49:50.231Z,0.00
2018-01-30T04:51:43.230Z,0.00
2018-01-30T04:52:43.265Z,0.00
2018-01-30T04:54:36.238Z,0.00
2018-01-30T04:55:36.297Z,0.00
2018-01-30T04:57:29.291Z,0.00
2018-01-30T04:58:29.326Z,0.00
2018-01-30T05:00:22.304Z,0.00
2018-01-30T05:01:22.358Z,0.00
2018-01-30T05:03:15.384Z,0.00
2018-01-30T05:04:15.395Z,0.00
2018-01-30T05:06:08.390Z,0.00
2018-01-30T05:07:08.425Z,0.00
2018-01-30T05:09:01.404Z,0.00
2018-01-30T05:10:01.456Z,0.00
2018-01-30T05:11:54.453Z,0.00
2018-01-30T05:12:54.486Z,0.00
2018-01-30T05:14:47.464Z,0.00
2018-01-30T05:15:47.517Z,0.00
2018-01-30T05:17:40.515Z,0.00
2018-01-30T05:18:40.548Z,0.00
2018-01-30T05:20:33.525Z,0.00
2018-01-30T05:21:33.581Z,0.00
2018-01-30T05:23:26.578Z,0.00
2018-01-30T05:24:26.612Z,0.00
2018-01-30T05:26:19.608Z,0.00
2018-01-30T05:27:19.644Z,0.00
2018-01-30T05:29:12.622Z,0.00
2018-01-30T05:30:12.675Z,0.00
2018-01-30T05:32:05.673Z,0.00
2018-01-30T05:33:05.708Z,0.00
2018-01-30T05:34:58.688Z,0.00
2018-01-30T05:35:58.739Z,0.00
2018-01-30T05:37:51.741Z,0.00
2018-01-30T05:38:51.777Z,0.00
2018-01-30T05:40:44.754Z,0.00
2018-01-30T05:41:44.808Z,0.00
2018-01-30T05:43:37.814Z,0.00
2018-01-30T05:44:37.849Z,0.00
2018-01-30T05:46:30.847Z,0.00
2018-01-30T05:47:30.880Z,0.00
2018-01-30T05:49:23.857Z,0.00
2018-01-30T05:50:23.913Z,0.00
2018-01-30T05:52:16.906Z,0.00
2018-01-30T05:53:16.944Z,0.00
2018-01-30T05:55:09.918Z,0.00
2018-01-30T05:56:09.972Z,0.00
2018-01-30T05:58:02.975Z,0.00
2018-01-30T05:59:03.020Z,0.00
2018-01-30T06:00:55.994Z,0.00
2018-01-30T06:01:56.051Z,0.00
2018-01-30T06:03:49.050Z,0.00
2018-01-30T06:04:49.081Z,0.00
2018-01-30T06:06:42.140Z,0.00
2018-01-30T06:07:42.210Z,0.00
2018-01-30T06:09:35.154Z,0.00
2018-01-30T06:10:35.211Z,0.00
2018-01-30T06:12:28.208Z,0.00
2018-01-30T06:13:28.242Z,0.00
2018-01-30T06:15:21.220Z,0.00
2018-01-30T06:16:21.275Z,0.00
2018-01-30T06:18:14.271Z,0.00
2018-01-30T06:19:14.309Z,0.00
2018-01-30T06:21:07.282Z,0.00
2018-01-30T06:22:07.339Z,0.00
2018-01-30T06:24:00.335Z,0.00
2018-01-30T06:25:00.368Z,0.00
2018-01-30T06:26:53.366Z,0.00
2018-01-30T06:27:53.402Z,0.00
2018-01-30T06:29:46.380Z,0.00
2018-01-30T06:30:46.434Z,0.00
2018-01-30T06:32:39.433Z,0.00
2018-01-30T06:33:39.469Z,0.00
2018-01-30T06:35:32.449Z,0.00
2018-01-30T06:36:32.502Z,0.00
2018-01-30T06:38:25.498Z,4.00
2018-01-30T06:39:25.531Z,0.00
2018-01-30T06:41:18.508Z,0.00
2018-01-30T06:42:18.561Z,4.00
2018-01-30T06:44:11.559Z,4.00
2018-01-30T06:45:11.597Z,8.00
2018-01-30T06:47:04.592Z,8.00
2018-01-30T06:48:04.627Z,8.00
2018-01-30T06:49:57.600Z,12.00
2018-01-30T06:50:57.659Z,16.00
2018-01-30T06:52:50.654Z,20.00
2018-01-30T06:53:50.686Z,24.00
2018-01-30T06:55:43.661Z,32.00
2018-01-30T06:56:43.717Z,36.00
2018-01-30T06:58:36.711Z,52.00
2018-01-30T06:59:36.746Z,56.00
2018-01-30T07:01:29.730Z,72.00
2018-01-30T07:02:29.801Z,80.00
2018-01-30T07:04:22.836Z,104.00
2018-01-30T07:05:22.818Z,112.00
2018-01-30T07:07:15.829Z,144.00
2018-01-30T07:08:15.849Z,160.00
2018-01-30T07:10:08.827Z,192.00
2018-01-30T07:11:08.883Z,212.00
2018-01-30T07:13:01.878Z,248.00
2018-01-30T07:14:01.914Z,264.00
2018-01-30T07:15:54.887Z,300.00
2018-01-30T07:16:54.943Z,320.00
2018-01-30T07:18:47.940Z,360.00
2018-01-30T07:19:48.062Z,384.00
2018-01-30T07:21:40.953Z,436.00
2018-01-30T07:22:41.008Z,460.00
2018-01-30T07:24:34.005Z,520.00
2018-01-30T07:25:34.039Z,548.00
2018-01-30T07:27:27.034Z,596.00
2018-01-30T07:28:27.069Z,632.00
2018-01-30T07:30:20.112Z,688.00
2018-01-30T07:31:20.108Z,728.00
2018-01-30T07:33:13.181Z,796.00
2018-01-30T07:34:13.138Z,824.00
2018-01-30T07:36:06.115Z,884.00
2018-01-30T07:37:06.169Z,900.00
2018-01-30T07:38:59.171Z,884.00
2018-01-30T07:39:59.201Z,868.00
2018-01-30T07:41:52.176Z,788.00
2018-01-30T07:42:52.230Z,904.00
2018-01-30T07:44:45.230Z,956.00
2018-01-30T07:45:45.265Z,1004.00
2018-01-30T07:47:38.263Z,1112.00
2018-01-30T07:48:38.298Z,1180.00
2018-01-30T07:50:31.270Z,1388.00
2018-01-30T07:51:31.326Z,1332.00
2018-01-30T07:53:24.324Z,1068.00
2018-01-30T07:54:24.359Z,1088.00
2018-01-30T07:56:17.422Z,1268.00
2018-01-30T07:57:17.477Z,1304.00
2018-01-30T07:59:10.473Z,1604.00
2018-01-30T08:00:10.507Z,1324.00
2018-01-30T08:02:03.486Z,1248.00
2018-01-30T08:03:03.543Z,1352.00
2018-01-30T08:04:56.539Z,1480.00
2018-01-30T08:05:56.573Z,1368.00
2018-01-30T08:07:49.570Z,1448.00
2018-01-30T08:08:49.605Z,1516.00
2018-01-30T08:10:42.581Z,1404.00
2018-01-30T08:11:42.636Z,1636.00
2018-01-30T08:13:35.644Z,1980.00
2018-01-30T08:14:35.677Z,2456.00
2018-01-30T08:16:28.662Z,2524.00
2018-01-30T08:17:28.709Z,2664.00
2018-01-30T08:19:21.710Z,2428.00
2018-01-30T08:20:21.749Z,2500.00
2018-01-30T08:22:14.719Z,2560.00
2018-01-30T08:23:14.773Z,2580.00
2018-01-30T08:25:07.837Z,2824.00
2018-01-30T08:26:07.811Z,3228.00
2018-01-30T08:28:00.806Z,3136.00
2018-01-30T08:29:00.839Z,2604.00
2018-01-30T08:30:53.817Z,2916.00
2018-01-30T08:31:53.878Z,2828.00
2018-01-30T08:33:46.868Z,2920.00
2018-01-30T08:34:46.905Z,3364.00
2018-01-30T08:36:39.879Z,3272.00
2018-01-30T08:37:39.936Z,2908.00
2018-01-30T08:39:33.446Z,3952.00
2018-01-30T08:40:33.475Z,3100.00
2018-01-30T08:42:26.451Z,2396.00
2018-01-30T08:43:26.508Z,2572.00
2018-01-30T08:45:19.506Z,2560.00
2018-01-30T08:46:19.541Z,2500.00
2018-01-30T08:48:12.540Z,2396.00
2018-01-30T08:49:12.571Z,2944.00
2018-01-30T08:51:05.549Z,3072.00
2018-01-30T08:52:05.606Z,2844.00
2018-01-30T08:53:58.602Z,3212.00
2018-01-30T08:54:58.639Z,3500.00
2018-01-30T08:56:51.613Z,3868.00
2018-01-30T08:57:51.670Z,3960.00
2018-01-30T08:59:44.666Z,3924.00
2018-01-30T09:00:44.701Z,4412.00
2018-01-30T09:02:37.677Z,3760.00
2018-01-30T09:03:37.734Z,4156.00
2018-01-30T09:05:30.730Z,3584.00
2018-01-30T09:06:30.766Z,3296.00
2018-01-30T09:08:23.762Z,3916.00
2018-01-30T09:09:23.801Z,3456.00
2018-01-30T09:11:16.775Z,3628.00
2018-01-30T09:12:16.837Z,3428.00
2018-01-30T09:14:09.829Z,2564.00
2018-01-30T09:15:09.866Z,2844.00
2018-01-30T09:17:02.850Z,3440.00
2018-01-30T09:18:02.907Z,2600.00
2018-01-30T09:19:55.902Z,2388.00
2018-01-30T09:20:55.986Z,3276.00
2018-01-30T09:22:48.913Z,3008.00
2018-01-30T09:23:48.969Z,4308.00
2018-01-30T09:25:41.967Z,3516.00
2018-01-30T09:26:42.003Z,4308.00
2018-01-30T09:28:35.008Z,5204.00
2018-01-30T09:29:35.037Z,4204.00
2018-01-30T09:31:28.018Z,4336.00
2018-01-30T09:32:28.074Z,5064.00
2018-01-30T09:34:21.068Z,3952.00
2018-01-30T09:35:21.106Z,4744.00
2018-01-30T09:37:14.083Z,5172.00
2018-01-30T09:38:14.140Z,4508.00
2018-01-30T09:40:07.135Z,4648.00
2018-01-30T09:41:07.168Z,4952.00
2018-01-30T09:43:00.152Z,4444.00
2018-01-30T09:44:00.204Z,4876.00
2018-01-30T09:45:53.200Z,5704.00
2018-01-30T09:46:53.236Z,6820.00
2018-01-30T09:48:46.233Z,3452.00
2018-01-30T09:49:46.270Z,3776.00
2018-01-30T09:51:39.250Z,8508.00
2018-01-30T09:52:39.307Z,9988.00
2018-01-30T09:54:32.303Z,6960.00
2018-01-30T09:55:32.341Z,6644.00
2018-01-30T09:57:25.364Z,7852.00
2018-01-30T09:58:25.423Z,6344.00
2018-01-30T10:00:18.437Z,4876.00
2018-01-30T10:01:18.456Z,5176.00
2018-01-30T10:03:11.434Z,5476.00
2018-01-30T10:04:11.491Z,4856.00
2018-01-30T10:06:04.490Z,4696.00
2018-01-30T10:07:04.524Z,4256.00
2018-01-30T10:08:57.528Z,6180.00
2018-01-30T10:09:57.565Z,5320.00
2018-01-30T10:11:50.542Z,3564.00
2018-01-30T10:12:50.597Z,6420.00
2018-01-30T10:14:43.601Z,4616.00
2018-01-30T10:15:43.646Z,4828.00
2018-01-30T10:17:36.617Z,5016.00
2018-01-30T10:18:36.673Z,3940.00
2018-01-30T10:20:29.670Z,6864.00
2018-01-30T10:21:29.706Z,4892.00
2018-01-30T10:23:22.688Z,4388.00
2018-01-30T10:24:22.803Z,3888.00
2018-01-30T10:26:15.746Z,5532.00
2018-01-30T10:27:15.779Z,3700.00
2018-01-30T10:29:08.777Z,4832.00
2018-01-30T10:30:08.819Z,5272.00
2018-01-30T10:32:01.790Z,4120.00
2018-01-30T10:33:01.848Z,5140.00
2018-01-30T10:34:54.846Z,4604.00
2018-01-30T10:35:54.881Z,5032.00
2018-01-30T10:37:47.861Z,6192.00
2018-01-30T10:38:47.917Z,6480.00
2018-01-30T10:40:40.919Z,6708.00
2018-01-30T10:41:40.954Z,7196.00
2018-01-30T10:43:33.931Z,8128.00
2018-01-30T10:44:33.988Z,6616.00
2018-01-30T10:46:26.987Z,6196.00
2018-01-30T10:47:27.028Z,7740.00
2018-01-30T10:49:20.030Z,7700.00
2018-01-30T10:50:20.063Z,9280.00
2018-01-30T10:52:13.049Z,6756.00
2018-01-30T10:53:13.105Z,6212.00
2018-01-30T10:55:06.187Z,8340.00
2018-01-30T10:56:06.141Z,9644.00
2018-01-30T10:57:59.125Z,8644.00
2018-01-30T10:58:59.182Z,7596.00
2018-01-30T11:00:52.183Z,7320.00
2018-01-30T11:01:52.217Z,8068.00
2018-01-30T11:03:45.195Z,9584.00
2018-01-30T11:04:45.252Z,9648.00
2018-01-30T11:06:38.258Z,8796.00
2018-01-30T11:07:38.296Z,8764.00
2018-01-30T11:09:31.295Z,9508.00
2018-01-30T11:10:31.333Z,8876.00
2018-01-30T11:12:24.317Z,8404.00
2018-01-30T11:13:24.369Z,8424.00
2018-01-30T11:15:17.368Z,8040.00
2018-01-30T11:16:17.406Z,9116.00
2018-01-30T11:18:10.388Z,8124.00
2018-01-30T11:19:10.440Z,6520.00
2018-01-30T11:21:03.439Z,7008.00
2018-01-30T11:22:03.476Z,6316.00
2018-01-30T11:23:56.458Z,6700.00
2018-01-30T11:24:56.515Z,8356.00
2018-01-30T11:26:49.519Z,7156.00
2018-01-30T11:27:49.553Z,9728.00
2018-01-30T11:29:42.552Z,6952.00
2018-01-30T11:30:42.590Z,8352.00
2018-01-30T11:32:35.568Z,7912.00
2018-01-30T11:33:35.626Z,7368.00
2018-01-30T11:35:28.625Z,6588.00
2018-01-30T11:36:28.661Z,6644.00
2018-01-30T11:38:21.641Z,6776.00
2018-01-30T11:39:21.698Z,7084.00
2018-01-30T11:41:14.732Z,7956.00
2018-01-30T11:42:14.736Z,6708.00
2018-01-30T11:44:07.723Z,8280.00
2018-01-30T11:45:07.773Z,7492.00
2018-01-30T11:47:00.772Z,7116.00
2018-01-30T11:48:00.809Z,7232.00
2018-01-30T11:49:53.812Z,5208.00
2018-01-30T11:50:53.849Z,5876.00
2018-01-30T11:52:46.828Z,5688.00
2018-01-30T11:53:46.883Z,5488.00
2018-01-30T11:55:39.890Z,5316.00
2018-01-30T11:56:39.924Z,4992.00
2018-01-30T11:58:32.908Z,5076.00
2018-01-30T11:59:32.999Z,4688.00
2018-01-30T12:01:25.978Z,4840.00
2018-01-30T12:02:26.003Z,4716.00
2018-01-30T12:04:18.992Z,5028.00
2018-01-30T12:05:19.051Z,5108.00
2018-01-30T12:07:12.052Z,4744.00
2018-01-30T12:08:12.088Z,4996.00
2018-01-30T12:10:05.598Z,5240.00
2018-01-30T12:11:05.333Z,5300.00
2018-01-30T12:12:58.616Z,5224.00
2018-01-30T12:13:58.666Z,5124.00
2018-01-30T12:15:51.666Z,5872.00
2018-01-30T12:16:51.700Z,6056.00
2018-01-30T12:18:44.682Z,5288.00
2018-01-30T12:19:44.738Z,6912.00
2018-01-30T12:21:37.742Z,5268.00
2018-01-30T12:22:37.782Z,4724.00
2018-01-30T12:24:30.762Z,4304.00
2018-01-30T12:25:30.820Z,4424.00
2018-01-30T12:27:23.820Z,4496.00
2018-01-30T12:28:23.862Z,4672.00
2018-01-30T12:30:16.858Z,4268.00
2018-01-30T12:31:16.892Z,4040.00
2018-01-30T12:33:09.891Z,3848.00
2018-01-30T12:34:09.948Z,3840.00
2018-01-30T12:36:02.946Z,3988.00
2018-01-30T12:37:02.984Z,3772.00
2018-01-30T12:38:55.966Z,3672.00
2018-01-30T12:39:56.022Z,3720.00
2018-01-30T12:41:49.027Z,3644.00
2018-01-30T12:42:49.057Z,3836.00
2018-01-30T12:44:42.042Z,3672.00
2018-01-30T12:45:42.094Z,3440.00
2018-01-30T12:47:35.095Z,3260.00
2018-01-30T12:48:35.128Z,3236.00
2018-01-30T12:50:28.126Z,3416.00
2018-01-30T12:51:28.163Z,3552.00
2018-01-30T12:53:21.153Z,3388.00
2018-01-30T12:54:21.208Z,3960.00
2018-01-30T12:56:14.209Z,3856.00
2018-01-30T12:57:14.242Z,3936.00
2018-01-30T12:59:07.223Z,4188.00
2018-01-30T13:00:07.280Z,4336.00
2018-01-30T13:02:00.278Z,4632.00
2018-01-30T13:03:00.314Z,4560.00
2018-01-30T13:04:53.295Z,4768.00
2018-01-30T13:05:53.349Z,4988.00
2018-01-30T13:07:46.351Z,5252.00
2018-01-30T13:08:46.387Z,5192.00
2018-01-30T13:10:39.392Z,5336.00
2018-01-30T13:11:39.427Z,5364.00
2018-01-30T13:13:32.408Z,4980.00
2018-01-30T13:14:32.464Z,4960.00
2018-01-30T13:16:25.464Z,4556.00
2018-01-30T13:17:25.498Z,4480.00
2018-01-30T13:19:18.479Z,4528.00
2018-01-30T13:20:18.535Z,4504.00
2018-01-30T13:22:11.533Z,4488.00
2018-01-30T13:23:11.569Z,4512.00
2018-01-30T13:25:04.550Z,4260.00
2018-01-30T13:26:04.609Z,4116.00
2018-01-30T13:27:57.609Z,3880.00
2018-01-30T13:28:57.646Z,3760.00
2018-01-30T13:30:50.643Z,3768.00
2018-01-30T13:31:50.681Z,3756.00
2018-01-30T13:33:43.683Z,4140.00
2018-01-30T13:34:43.780Z,4532.00
2018-01-30T13:36:36.731Z,4884.00
2018-01-30T13:37:36.761Z,4780.00
2018-01-30T13:39:29.744Z,4412.00
2018-01-30T13:40:29.800Z,4076.00
2018-01-30T13:42:22.803Z,3692.00
2018-01-30T13:43:22.841Z,3612.00
2018-01-30T13:45:15.818Z,3360.00
2018-01-30T13:46:15.874Z,3252.00
2018-01-30T13:48:08.879Z,2988.00
2018-01-30T13:49:08.913Z,2816.00
2018-01-30T13:51:01.908Z,2608.00
2018-01-30T13:52:01.945Z,2612.00
2018-01-30T13:53:54.923Z,2820.00
2018-01-30T13:54:54.980Z,2928.00
2018-01-30T13:56:47.977Z,3656.00
2018-01-30T13:57:48.015Z,3236.00
2018-01-30T13:59:40.991Z,3108.00
2018-01-30T14:00:41.050Z,3324.00
2018-01-30T14:02:34.050Z,3736.00
2018-01-30T14:03:34.083Z,3796.00
2018-01-30T14:05:27.063Z,3492.00
2018-01-30T14:06:27.128Z,3380.00
2018-01-30T14:08:20.123Z,3208.00
2018-01-30T14:09:20.156Z,3208.00
2018-01-30T14:11:13.159Z,3140.00
2018-01-30T14:12:13.196Z,3004.00
2018-01-30T14:14:06.173Z,2724.00
2018-01-30T14:15:06.232Z,2672.00
2018-01-30T14:16:59.233Z,2456.00
2018-01-30T14:17:59.270Z,2364.00
2018-01-30T14:19:52.256Z,2204.00
2018-01-30T14:20:52.314Z,2136.00
2018-01-30T14:22:45.314Z,2136.00
2018-01-30T14:23:45.349Z,2152.00
2018-01-30T14:25:38.326Z,1920.00
2018-01-30T14:26:38.384Z,1804.00
2018-01-30T14:28:31.384Z,1716.00
2018-01-30T14:29:31.418Z,1676.00
2018-01-30T14:31:24.415Z,1640.00
2018-01-30T14:32:24.451Z,1580.00
2018-01-30T14:34:17.432Z,1584.00
2018-01-30T14:35:17.487Z,1536.00
2018-01-30T14:37:10.490Z,1520.00
2018-01-30T14:38:10.524Z,1508.00
2018-01-30T14:40:04.019Z,1564.00
2018-01-30T14:41:04.070Z,1620.00
2018-01-30T14:42:57.071Z,1700.00
2018-01-30T14:43:57.109Z,1720.00
2018-01-30T14:45:50.086Z,1732.00
2018-01-30T14:46:50.153Z,1728.00
2018-01-30T14:48:43.143Z,1652.00
2018-01-30T14:49:43.179Z,1596.00
2018-01-30T14:51:36.179Z,1480.00
2018-01-30T14:52:36.219Z,1432.00
2018-01-30T14:54:29.709Z,1356.00
2018-01-30T14:55:29.796Z,1320.00
2018-01-30T14:57:22.755Z,1308.00
2018-01-30T14:58:22.789Z,1332.00
2018-01-30T15:00:15.774Z,1352.00
2018-01-30T15:01:15.833Z,1340.00
2018-01-30T15:03:08.845Z,1336.00
2018-01-30T15:04:08.870Z,1312.00
2018-01-30T15:06:01.855Z,1312.00
2018-01-30T15:07:01.912Z,1308.00
2018-01-30T15:08:54.906Z,1264.00
2018-01-30T15:09:54.943Z,1248.00
2018-01-30T15:11:47.943Z,1200.00
2018-01-30T15:12:47.978Z,1196.00
2018-01-30T15:14:40.962Z,1236.00
2018-01-30T15:15:41.018Z,1236.00
2018-01-30T15:17:34.015Z,1180.00
2018-01-30T15:18:34.053Z,1216.00
2018-01-30T15:20:27.039Z,1248.00
2018-01-30T15:21:27.089Z,1108.00
2018-01-30T15:23:20.087Z,1056.00
2018-01-30T15:24:20.128Z,1044.00
2018-01-30T15:26:13.106Z,1012.00
2018-01-30T15:27:13.158Z,1112.00
2018-01-30T15:29:06.167Z,1016.00
2018-01-30T15:30:06.203Z,952.00
2018-01-30T15:31:59.201Z,924.00
2018-01-30T15:32:59.242Z,888.00
2018-01-30T15:34:52.219Z,824.00
2018-01-30T15:35:52.272Z,796.00
2018-01-30T15:37:45.269Z,760.00
2018-01-30T15:38:45.302Z,744.00
2018-01-30T15:40:38.286Z,748.00
2018-01-30T15:41:38.338Z,732.00
2018-01-30T15:43:31.336Z,728.00
2018-01-30T15:44:31.374Z,752.00
2018-01-30T15:46:24.350Z,768.00
2018-01-30T15:47:24.410Z,708.00
2018-01-30T15:49:17.405Z,696.00
2018-01-30T15:50:17.440Z,668.00
2018-01-30T15:52:10.440Z,568.00
2018-01-30T15:53:10.475Z,540.00
2018-01-30T15:55:03.459Z,508.00
2018-01-30T15:56:03.535Z,472.00
2018-01-30T15:57:56.507Z,416.00
2018-01-30T15:58:56.543Z,408.00
2018-01-30T16:00:49.531Z,388.00
2018-01-30T16:01:49.583Z,368.00
2018-01-30T16:03:43.126Z,324.00
2018-01-30T16:04:43.121Z,300.00
2018-01-30T16:06:36.099Z,256.00
2018-01-30T16:07:36.157Z,232.00
2018-01-30T16:09:29.159Z,200.00
2018-01-30T16:10:29.239Z,184.00
2018-01-30T16:12:22.191Z,160.00
2018-01-30T16:13:22.223Z,152.00
2018-01-30T16:15:15.202Z,132.00
2018-01-30T16:16:15.263Z,120.00
2018-01-30T16:18:08.253Z,100.00
2018-01-30T16:19:08.290Z,96.00
2018-01-30T16:21:01.275Z,76.00
2018-01-30T16:22:01.333Z,68.00
2018-01-30T16:23:54.329Z,56.00
2018-01-30T16:24:54.364Z,52.00
2018-01-30T16:26:47.381Z,36.00
2018-01-30T16:27:47.399Z,36.00
2018-01-30T16:29:40.403Z,24.00
2018-01-30T16:30:40.434Z,24.00
2018-01-30T16:32:33.432Z,16.00
2018-01-30T16:33:33.469Z,16.00
2018-01-30T16:35:26.445Z,12.00
2018-01-30T16:36:26.500Z,12.00
2018-01-30T16:38:19.502Z,8.00
2018-01-30T16:39:19.535Z,8.00
2018-01-30T16:41:12.511Z,8.00
2018-01-30T16:42:12.571Z,4.00
2018-01-30T16:44:05.566Z,4.00
2018-01-30T16:45:05.603Z,0.00
2018-01-30T16:46:58.585Z,4.00
2018-01-30T16:47:58.679Z,4.00
2018-01-30T16:49:51.635Z,4.00
2018-01-30T16:50:51.672Z,0.00
2018-01-30T16:52:44.677Z,0.00
2018-01-30T16:53:44.712Z,0.00
2018-01-30T16:55:37.682Z,0.00
2018-01-30T16:56:37.764Z,0.00
2018-01-30T16:58:30.736Z,0.00
2018-01-30T16:59:30.771Z,0.00
2018-01-30T17:01:23.755Z,0.00
2018-01-30T17:02:23.806Z,0.00
2018-01-30T17:04:17.313Z,0.00
2018-01-30T17:05:17.347Z,0.00
2018-01-30T17:07:10.327Z,0.00
2018-01-30T17:08:10.385Z,0.00
2018-01-30T17:10:03.390Z,0.00
2018-01-30T17:11:03.417Z,0.00
2018-01-30T17:12:56.427Z,0.00
2018-01-30T17:13:56.463Z,0.00
2018-01-30T17:15:49.448Z,0.00
2018-01-30T17:16:49.497Z,0.00
2018-01-30T17:18:42.497Z,0.00
2018-01-30T17:19:42.532Z,0.00
2018-01-30T17:21:35.509Z,0.00
2018-01-30T17:22:35.564Z,0.00
2018-01-30T17:24:28.618Z,0.00
2018-01-30T17:25:28.652Z,0.00
2018-01-30T17:27:21.629Z,0.00
2018-01-30T17:28:21.692Z,0.00
2018-01-30T17:30:14.683Z,0.00
2018-01-30T17:31:14.719Z,0.00
2018-01-30T17:33:07.722Z,0.00
2018-01-30T17:34:07.760Z,0.00
2018-01-30T17:36:00.932Z,0.00
2018-01-30T17:37:00.990Z,0.00
2018-01-30T17:38:53.989Z,0.00
2018-01-30T17:39:54.025Z,0.00
2018-01-30T17:41:47.000Z,0.00
2018-01-30T17:42:47.054Z,0.00
2018-01-30T17:44:40.052Z,0.00
2018-01-30T17:45:40.131Z,0.00
2018-01-30T17:47:33.097Z,0.00
2018-01-30T17:48:33.170Z,0.00
2018-01-30T17:50:26.211Z,0.00
2018-01-30T17:51:26.164Z,0.00
2018-01-30T17:53:19.239Z,0.00
2018-01-30T17:54:19.225Z,0.00
2018-01-30T17:56:12.170Z,0.00
2018-01-30T17:57:12.229Z,0.00
2018-01-30T17:59:05.255Z,0.00
2018-01-30T18:00:05.299Z,0.00
2018-01-30T18:01:58.317Z,0.00
2018-01-30T18:02:58.352Z,0.00
2018-01-30T18:04:51.405Z,0.00
2018-01-30T18:05:51.394Z,0.00
2018-01-30T18:07:44.338Z,0.00
2018-01-30T18:08:44.389Z,0.00
2018-01-30T18:10:37.389Z,0.00
2018-01-30T18:11:37.422Z,0.00
2018-01-30T18:13:30.462Z,0.00
2018-01-30T18:14:30.454Z,0.00
2018-01-30T18:16:23.437Z,0.00
2018-01-30T18:17:23.487Z,0.00
2018-01-30T18:19:16.486Z,0.00
2018-01-30T18:20:16.523Z,0.00
2018-01-30T18:22:09.507Z,0.00
2018-01-30T18:23:09.555Z,0.00
2018-01-30T18:25:02.554Z,0.00
2018-01-30T18:26:02.590Z,0.00
2018-01-30T18:27:55.673Z,0.00
2018-01-30T18:28:55.619Z,0.00
2018-01-30T18:30:48.653Z,0.00
2018-01-30T18:31:48.662Z,0.00
2018-01-30T18:33:41.650Z,0.00
2018-01-30T18:34:41.694Z,0.00
2018-01-30T18:36:34.657Z,0.00
2018-01-30T18:37:34.715Z,0.00
2018-01-30T18:39:27.734Z,0.00
2018-01-30T18:40:27.756Z,0.00
2018-01-30T18:42:20.725Z,0.00
2018-01-30T18:43:20.777Z,0.00
2018-01-30T18:45:13.785Z,0.00
2018-01-30T18:46:13.811Z,0.00
2018-01-30T18:48:06.816Z,0.00